Time;durP1;ratioP1;P1;durP2;ratioP2;P2;SDS_P1;SDS_P2;PMS_P1;PMS_P2;Temp;Humidity;BMP_temperature;BMP_pressure;BME280_temperature;BME280_humidity;BME280_pressure;Samples;Min_cycle;Max_cycle;Signal;HPM_P1;HPM_P2
2021/07/06 00:01:40;;;;;;;0.40;0.40;;;;;;;15.47;84.02;95996.31;5075523;28;20041;-77
2021/07/06 00:04:06;;;;;;;0.70;0.70;;;;;;;15.44;84.10;95995.00;5075494;28;20028;-77
2021/07/06 00:06:32;;;;;;;0.95;0.60;;;;;;;15.42;84.25;96000.53;5075463;28;20029;-77
2021/07/06 00:08:58;;;;;;;0.88;0.70;;;;;;;15.41;84.29;96000.78;5075908;28;20037;-77
2021/07/06 00:11:24;;;;;;;0.45;0.45;;;;;;;15.40;84.35;96002.66;5075144;28;20055;-77
2021/07/06 00:13:50;;;;;;;0.90;0.60;;;;;;;15.39;84.39;96005.53;5075221;28;20043;-77
2021/07/06 00:16:16;;;;;;;0.50;0.50;;;;;;;15.36;84.46;96006.84;5074130;28;20059;-77
2021/07/06 00:18:43;;;;;;;0.60;0.60;;;;;;;15.35;84.56;95999.19;5075292;28;20048;-77
2021/07/06 00:21:09;;;;;;;0.50;0.50;;;;;;;15.33;84.58;96004.75;5075209;28;20025;-76
2021/07/06 00:23:35;;;;;;;0.80;0.63;;;;;;;15.31;84.53;96012.13;5075382;28;20039;-77
2021/07/06 00:26:02;;;;;;;0.50;0.50;;;;;;;15.30;84.44;96009.75;5075163;28;20388;-76
2021/07/06 00:28:28;;;;;;;2.58;0.75;;;;;;;15.27;84.65;96010.28;5075111;28;20036;-76
2021/07/06 00:30:54;;;;;;;0.50;0.50;;;;;;;15.23;84.64;96000.22;5074816;28;20044;-76
2021/07/06 00:33:31;;;;;;;;;;;;;;;15.20;85.20;95992.00;5075085;28;20044;-76
2021/07/06 00:36:08;;;;;;;1.17;0.60;;;;;;;15.17;84.74;95989.88;5074646;28;19912;-76
2021/07/06 00:38:34;;;;;;;1.15;0.50;;;;;;;15.15;84.75;95987.50;5074293;28;20056;-76
2021/07/06 00:41:01;;;;;;;0.50;0.50;;;;;;;15.14;84.75;95985.09;5075002;28;20036;-76
2021/07/06 00:43:27;;;;;;;0.93;0.60;;;;;;;15.12;84.85;95982.75;5074388;28;20039;-76
2021/07/06 00:45:56;;;;;;;0.50;0.50;;;;;;;15.10;84.52;95974.28;5074395;28;20063;-76
2021/07/06 00:48:23;;;;;;;1.35;0.88;;;;;;;15.10;84.80;95976.09;5074422;28;20052;-77
2021/07/06 00:50:50;;;;;;;1.33;0.80;;;;;;;15.09;84.80;95970.03;5074164;28;20039;-76
2021/07/06 00:53:16;;;;;;;0.90;0.70;;;;;;;15.08;84.86;95968.47;5074997;28;20048;-76
2021/07/06 00:55:43;;;;;;;0.77;0.65;;;;;;;15.07;84.78;95969.50;5074579;28;20044;-76
2021/07/06 00:58:13;;;;;;;1.05;0.75;;;;;;;15.08;84.89;95962.41;5074162;28;20048;-76
2021/07/06 01:00:39;;;;;;;0.70;0.70;;;;;;;15.04;84.94;95966.59;5074424;28;20388;-75
2021/07/06 01:03:06;;;;;;;1.23;0.60;;;;;;;15.03;84.99;95965.78;5075070;28;20034;-76
2021/07/06 01:05:32;;;;;;;1.08;0.50;;;;;;;15.01;85.00;95963.41;5073853;28;20083;-76
2021/07/06 01:07:58;;;;;;;1.05;0.70;;;;;;;15.00;85.13;95951.25;5073665;28;20033;-76
2021/07/06 01:10:26;;;;;;;0.70;0.68;;;;;;;14.98;85.06;95955.22;5073057;28;20468;-76
2021/07/06 01:12:53;;;;;;;0.70;0.70;;;;;;;14.94;85.09;95949.66;5073653;28;20052;-76
2021/07/06 01:15:25;;;;;;;1.58;0.70;;;;;;;14.93;85.38;95961.28;5074169;28;20045;-75
2021/07/06 01:17:59;;;;;;;0.73;0.73;;;;;;;14.91;85.37;95955.44;5073844;28;20059;-76
2021/07/06 01:20:27;;;;;;;0.80;0.80;;;;;;;14.90;85.34;95950.41;5073588;28;20055;-77
2021/07/06 01:22:53;;;;;;;1.17;0.88;;;;;;;14.88;85.58;95944.59;5074295;28;20033;-76
2021/07/06 01:25:19;;;;;;;0.77;0.70;;;;;;;14.87;85.45;95938.53;5073889;28;20036;-76
2021/07/06 01:27:45;;;;;;;0.93;0.80;;;;;;;14.85;85.44;95942.50;5074040;28;20366;-76
2021/07/06 01:30:15;;;;;;;0.70;0.70;;;;;;;14.85;85.49;95939.84;5074133;28;20037;-77
2021/07/06 01:32:43;;;;;;;0.70;0.70;;;;;;;14.80;85.45;95938.78;5073204;28;20400;-76
2021/07/06 01:35:11;;;;;;;1.52;0.80;;;;;;;14.79;85.43;95931.09;5073683;28;20024;-76
2021/07/06 01:38:07;;;;;;;0.88;0.88;;;;;;;14.78;85.98;95929.50;5073053;28;20051;-76
2021/07/06 01:40:34;;;;;;;0.85;0.75;;;;;;;14.77;85.67;95941.91;5064303;28;20052;-76
2021/07/06 01:43:01;;;;;;;0.80;0.80;;;;;;;14.78;85.79;95930.31;5073718;28;20041;-75
2021/07/06 01:45:30;;;;;;;1.10;1.10;;;;;;;14.77;85.69;95928.72;5073371;28;20385;-75
2021/07/06 01:48:00;;;;;;;0.75;0.70;;;;;;;14.78;85.92;95926.84;5073181;28;20064;-76
2021/07/06 01:50:41;;;;;;;0.90;0.90;;;;;;;14.77;86.06;95920.00;5073323;28;20040;-76
2021/07/06 01:53:14;;;;;;;0.77;0.73;;;;;;;14.75;86.23;95922.91;5073373;28;20049;-76
2021/07/06 01:55:46;;;;;;;3.72;1.67;;;;;;;14.73;86.04;95913.66;5073781;28;20356;-76
2021/07/06 01:58:16;;;;;;;0.50;0.50;;;;;;;14.71;85.94;95911.25;5064572;28;20041;-76
2021/07/06 02:01:04;;;;;;;0.70;0.70;;;;;;;14.71;86.04;95910.47;5072902;28;20049;-76
2021/07/06 02:03:31;;;;;;;1.20;0.63;;;;;;;14.69;86.15;95910.72;5072075;28;20392;-76
2021/07/06 02:05:59;;;;;;;1.40;0.60;;;;;;;14.68;86.09;95911.78;5073324;28;20032;-76
2021/07/06 02:08:26;;;;;;;0.75;0.55;;;;;;;14.68;86.10;95914.44;5073282;28;20047;-76
2021/07/06 02:10:56;;;;;;;0.70;0.70;;;;;;;14.67;86.20;95906.75;5073438;28;20045;-76
2021/07/06 02:13:24;;;;;;;0.90;0.90;;;;;;;14.66;86.27;95910.44;5073166;28;20480;-76
2021/07/06 02:15:53;;;;;;;1.02;0.80;;;;;;;14.64;86.42;95912.56;5073057;28;20380;-76
2021/07/06 02:18:20;;;;;;;0.60;0.60;;;;;;;14.64;86.40;95907.28;5073688;28;20393;-76
2021/07/06 02:20:53;;;;;;;0.50;0.50;;;;;;;14.61;86.56;95896.19;5073421;28;20037;-76
2021/07/06 02:23:21;;;;;;;0.65;0.60;;;;;;;14.59;86.35;95900.13;5072988;28;20119;-76
2021/07/06 02:25:48;;;;;;;0.93;0.63;;;;;;;14.58;86.64;95901.97;5072852;28;20384;-76
2021/07/06 02:28:15;;;;;;;0.60;0.60;;;;;;;14.57;86.60;95896.94;5072801;28;20461;-76
2021/07/06 02:30:41;;;;;;;0.73;0.70;;;;;;;14.55;86.50;95897.22;5073192;28;20032;-76
2021/07/06 02:33:07;;;;;;;0.70;0.70;;;;;;;14.55;86.57;95904.28;5072602;28;20075;-76
2021/07/06 02:35:34;;;;;;;1.80;0.63;;;;;;;14.53;86.65;95898.47;5073145;28;20029;-76
2021/07/06 02:38:01;;;;;;;0.60;0.60;;;;;;;14.51;86.67;95896.09;5072902;28;20354;-76
2021/07/06 02:40:28;;;;;;;0.60;0.60;;;;;;;14.51;86.82;95905.84;5073021;28;20040;-76
2021/07/06 02:42:57;;;;;;;0.65;0.65;;;;;;;14.48;86.86;95893.19;5072632;28;20377;-76
2021/07/06 02:45:24;;;;;;;0.70;0.70;;;;;;;14.47;86.91;95902.13;5073170;28;20401;-76
2021/07/06 02:47:50;;;;;;;1.55;0.63;;;;;;;14.45;86.90;95893.66;5072898;28;20048;-76
2021/07/06 02:50:20;;;;;;;0.70;0.65;;;;;;;14.44;87.11;95892.09;5071550;28;20064;-76
2021/07/06 02:52:47;;;;;;;0.70;0.70;;;;;;;14.44;87.18;95886.81;5072782;28;20035;-76
2021/07/06 02:55:14;;;;;;;1.02;0.80;;;;;;;14.41;87.17;95896.06;5072832;28;20040;-76
2021/07/06 02:57:40;;;;;;;1.08;0.70;;;;;;;14.42;87.26;95894.97;5072048;28;20043;-76
2021/07/06 03:00:17;;;;;;;1.00;0.80;;;;;;;14.44;87.39;95886.81;5072993;28;20035;-76
2021/07/06 03:02:46;;;;;;;0.70;0.70;;;;;;;14.44;87.31;95892.09;5061249;28;20435;-75
2021/07/06 03:05:13;;;;;;;0.60;0.60;;;;;;;14.43;87.42;95888.66;5072737;28;20029;-77
2021/07/06 03:07:40;;;;;;;0.65;0.65;;;;;;;14.40;87.45;95887.34;5072721;28;20033;-75
2021/07/06 03:10:11;;;;;;;1.08;0.90;;;;;;;14.41;87.57;95888.91;5072293;28;20047;-75
2021/07/06 03:12:39;;;;;;;0.60;0.60;;;;;;;14.38;87.48;95889.44;5073263;28;20047;-75
2021/07/06 03:15:07;;;;;;;0.65;0.65;;;;;;;14.38;87.54;95901.81;5075059;28;20040;-76
2021/07/06 03:17:33;;;;;;;0.90;0.90;;;;;;;14.37;87.54;95889.69;5076303;28;20045;-76
2021/07/06 03:20:02;;;;;;;0.65;0.60;;;;;;;14.35;87.70;95895.22;5075667;28;20052;-76
2021/07/06 03:22:29;;;;;;;1.08;0.47;;;;;;;14.34;87.79;95885.72;5075963;28;20053;-76
2021/07/06 03:24:56;;;;;;;0.90;0.65;;;;;;;14.34;87.84;95877.00;5075792;28;20048;-76
2021/07/06 03:27:23;;;;;;;0.80;0.52;;;;;;;14.34;87.62;95877.81;5074767;28;20048;-76
2021/07/06 03:29:50;;;;;;;0.73;0.50;;;;;;;14.34;87.65;95871.72;5075858;28;20044;-76
2021/07/06 03:32:17;;;;;;;0.57;0.50;;;;;;;14.32;87.61;95868.53;5075932;28;20099;-77
2021/07/06 03:34:43;;;;;;;0.52;0.50;;;;;;;14.34;87.66;95855.91;5076167;28;20055;-75
2021/07/06 03:37:10;;;;;;;1.52;0.52;;;;;;;14.31;87.51;95851.94;5076042;28;20044;-76
2021/07/06 03:39:40;;;;;;;0.60;0.60;;;;;;;14.32;87.61;95853.53;5076123;28;20040;-75
2021/07/06 03:42:08;;;;;;;0.93;0.60;;;;;;;14.31;87.65;95851.94;5076187;28;20043;-76
2021/07/06 03:44:35;;;;;;;1.27;0.70;;;;;;;14.34;87.70;95851.44;5074994;28;20049;-75
2021/07/06 03:47:03;;;;;;;0.55;0.55;;;;;;;14.36;87.54;95843.25;5075004;28;20056;-77
2021/07/06 03:49:29;;;;;;;0.52;0.52;;;;;;;14.37;87.72;95845.63;5076330;28;20047;-76
2021/07/06 03:51:55;;;;;;;1.15;0.70;;;;;;;14.36;87.79;95841.44;5075998;28;20035;-76
2021/07/06 03:54:21;;;;;;;0.75;0.65;;;;;;;14.39;87.82;95845.38;5074966;28;20059;-76
2021/07/06 03:56:47;;;;;;;0.60;0.60;;;;;;;14.38;87.88;95841.97;5076080;28;20036;-76
2021/07/06 03:59:14;;;;;;;0.80;0.80;;;;;;;14.39;87.82;95832.19;5075400;28;20051;-76
2021/07/06 04:01:40;;;;;;;0.95;0.68;;;;;;;14.40;87.84;95839.03;5075613;28;20470;-76
2021/07/06 04:04:06;;;;;;;0.80;0.52;;;;;;;14.40;87.95;95828.50;5075089;28;20056;-76
2021/07/06 04:06:32;;;;;;;0.80;0.80;;;;;;;14.40;87.83;95828.50;5074568;28;20350;-76
2021/07/06 04:08:59;;;;;;;0.68;0.68;;;;;;;14.40;87.92;95828.50;5075432;28;20032;-76
2021/07/06 04:11:25;;;;;;;2.97;0.88;;;;;;;14.40;87.97;95831.94;5075676;28;20479;-76
2021/07/06 04:13:51;;;;;;;0.60;0.60;;;;;;;14.41;88.14;95832.75;5075369;28;20029;-76
2021/07/06 04:16:17;;;;;;;0.80;0.80;;;;;;;14.42;88.15;95831.69;5074957;28;20040;-76
2021/07/06 04:18:43;;;;;;;0.60;0.60;;;;;;;14.46;88.20;95831.97;5074880;28;20052;-75
2021/07/06 04:21:09;;;;;;;0.80;0.80;;;;;;;14.48;88.26;95830.66;5074525;28;20052;-75
2021/07/06 04:23:39;;;;;;;0.70;0.70;;;;;;;14.51;88.31;95816.97;5075364;28;20052;-75
2021/07/06 04:26:07;;;;;;;0.88;0.88;;;;;;;14.56;88.33;95814.34;5074053;28;20031;-75
2021/07/06 04:28:34;;;;;;;0.73;0.60;;;;;;;14.62;88.32;95812.53;5074886;28;20388;-74
2021/07/06 04:31:00;;;;;;;0.80;0.80;;;;;;;14.66;88.33;95820.72;5074949;28;20373;-76
2021/07/06 04:33:26;;;;;;;0.80;0.80;;;;;;;14.71;88.25;95820.75;5074489;28;20040;-75
2021/07/06 04:35:53;;;;;;;0.80;0.80;;;;;;;14.78;88.44;95814.19;5075006;28;20048;-75
2021/07/06 04:38:19;;;;;;;0.88;0.88;;;;;;;14.98;88.49;95815.28;5074928;28;20039;-75
2021/07/06 04:40:46;;;;;;;0.55;0.55;;;;;;;15.22;88.75;95807.63;5074807;28;20032;-74
2021/07/06 04:43:12;;;;;;;0.82;0.73;;;;;;;15.47;88.24;95803.44;5074575;28;20033;-75
2021/07/06 04:45:39;;;;;;;0.80;0.80;;;;;;;15.63;87.55;95811.09;5074642;28;20049;-74
2021/07/06 04:48:06;;;;;;;0.70;0.70;;;;;;;15.79;87.21;95811.09;5074671;28;20362;-74
2021/07/06 04:50:36;;;;;;;0.68;0.60;;;;;;;16.00;87.17;95817.97;5074348;28;20040;-74
2021/07/06 04:53:03;;;;;;;1.15;0.90;;;;;;;16.20;86.70;95821.63;5074827;28;20024;-73
2021/07/06 04:55:30;;;;;;;0.80;0.80;;;;;;;16.27;86.21;95830.06;5074815;28;20354;-73
2021/07/06 04:57:56;;;;;;;1.05;0.77;;;;;;;16.24;85.92;95822.66;5074413;28;20036;-74
2021/07/06 05:00:23;;;;;;;0.80;0.80;;;;;;;16.20;85.93;95822.41;5074527;28;20039;-74
2021/07/06 05:02:49;;;;;;;0.60;0.60;;;;;;;16.14;86.13;95820.03;5074714;28;20039;-74
2021/07/06 05:05:15;;;;;;;0.80;0.80;;;;;;;16.11;86.40;95823.22;5073890;28;20045;-74
2021/07/06 05:07:42;;;;;;;0.80;0.80;;;;;;;16.07;86.74;95817.69;5074269;28;20033;-74
2021/07/06 05:10:11;;;;;;;1.13;1.10;;;;;;;16.05;86.97;95817.16;5074837;28;20049;-74
2021/07/06 05:12:38;;;;;;;0.68;0.65;;;;;;;16.12;87.39;95806.28;5065124;28;20043;-74
2021/07/06 05:15:05;;;;;;;1.15;0.95;;;;;;;16.30;87.55;95807.56;5074094;28;20488;-74
2021/07/06 05:17:31;;;;;;;1.63;0.80;;;;;;;16.59;87.90;95807.72;5073713;28;20409;-74
2021/07/06 05:19:58;;;;;;;1.20;0.90;;;;;;;16.98;87.92;95796.44;5073794;28;20049;-74
2021/07/06 05:22:24;;;;;;;0.90;0.70;;;;;;;17.38;86.93;95799.88;5073783;28;20036;-74
2021/07/06 05:24:50;;;;;;;1.38;0.80;;;;;;;17.62;85.79;95799.94;5074031;28;20032;-74
2021/07/06 05:27:18;;;;;;;0.77;0.77;;;;;;;17.77;85.00;95806.97;5074259;28;20043;-74
2021/07/06 05:29:45;;;;;;;0.75;0.75;;;;;;;18.04;84.54;95809.16;5073677;28;20029;-73
2021/07/06 05:32:11;;;;;;;1.45;0.65;;;;;;;18.34;83.61;95810.66;5074003;28;20041;-73
2021/07/06 05:34:37;;;;;;;0.80;0.80;;;;;;;18.69;82.79;95818.50;5073732;28;20472;-74
2021/07/06 05:37:03;;;;;;;1.10;0.90;;;;;;;18.96;81.25;95809.94;5073250;28;20059;-74
2021/07/06 05:39:30;;;;;;;0.70;0.70;;;;;;;19.09;80.01;95811.09;5073688;28;20036;-74
2021/07/06 05:41:57;;;;;;;1.10;1.00;;;;;;;19.26;79.20;95812.16;5074162;28;20044;-74
2021/07/06 05:44:24;;;;;;;0.68;0.63;;;;;;;19.35;77.74;95812.28;5073258;28;20063;-74
2021/07/06 05:46:50;;;;;;;0.60;0.60;;;;;;;19.44;77.23;95817.75;5073436;28;20481;-75
2021/07/06 05:49:16;;;;;;;1.58;1.00;;;;;;;19.57;76.24;95825.00;5073810;28;20419;-74
2021/07/06 05:51:42;;;;;;;1.58;0.75;;;;;;;19.81;75.56;95832.09;5072281;28;20051;-74
2021/07/06 05:54:08;;;;;;;0.95;0.63;;;;;;;20.02;74.81;95838.63;5073453;28;20029;-74
2021/07/06 05:56:34;;;;;;;1.55;0.82;;;;;;;20.25;73.93;95852.88;5073566;28;20381;-74
2021/07/06 05:59:01;;;;;;;1.60;0.77;;;;;;;20.54;72.88;95859.03;5073628;28;20118;-74
2021/07/06 06:01:30;;;;;;;0.80;0.80;;;;;;;20.67;71.64;95848.38;5073443;28;20045;-74
2021/07/06 06:03:57;;;;;;;2.03;0.93;;;;;;;20.65;70.75;95847.09;5073487;28;20491;-74
2021/07/06 06:06:23;;;;;;;1.00;0.75;;;;;;;20.54;70.25;95845.72;5072757;28;20041;-74
2021/07/06 06:08:49;;;;;;;0.68;0.68;;;;;;;20.35;70.13;95840.44;5073299;28;20393;-74
2021/07/06 06:11:15;;;;;;;1.52;1.10;;;;;;;20.44;70.19;95841.34;5072995;28;20052;-74
2021/07/06 06:13:41;;;;;;;1.00;0.70;;;;;;;20.68;70.00;95827.84;5073922;28;20036;-73
2021/07/06 06:16:07;;;;;;;1.42;1.27;;;;;;;20.97;69.43;95829.41;5072224;28;20036;-74
2021/07/06 06:18:34;;;;;;;2.22;1.10;;;;;;;21.23;68.56;95843.75;5072663;28;20419;-74
2021/07/06 06:21:01;;;;;;;1.08;0.90;;;;;;;21.42;67.86;95851.63;5073151;28;20045;-75
2021/07/06 06:23:27;;;;;;;2.58;1.05;;;;;;;21.57;67.25;95855.81;5072718;28;20044;-73
2021/07/06 06:25:53;;;;;;;1.25;0.77;;;;;;;21.61;66.40;95845.34;5072857;28;20041;-73
2021/07/06 06:28:19;;;;;;;1.08;1.00;;;;;;;21.39;66.15;95835.41;5072673;28;20040;-73
2021/07/06 06:30:45;;;;;;;0.95;0.80;;;;;;;21.11;66.29;95835.50;5073309;28;20492;-74
2021/07/06 06:33:11;;;;;;;0.73;0.73;;;;;;;20.80;66.72;95841.47;5073085;28;20032;-74
2021/07/06 06:35:39;;;;;;;1.25;1.00;;;;;;;20.58;67.05;95836.03;5071896;28;20036;-75
2021/07/06 06:38:05;;;;;;;1.23;0.75;;;;;;;20.72;67.51;95834.16;5073111;28;20496;-74
2021/07/06 06:40:32;;;;;;;0.60;0.60;;;;;;;20.98;67.63;95837.09;5071565;28;20036;-73
2021/07/06 06:42:58;;;;;;;0.60;0.60;;;;;;;21.28;67.23;95845.53;5073138;28;20036;-73
2021/07/06 06:45:25;;;;;;;0.82;0.50;;;;;;;21.56;66.94;95850.78;5072937;28;20056;-73
2021/07/06 06:47:51;;;;;;;0.95;0.60;;;;;;;21.72;66.07;95851.22;5072998;28;20488;-74
2021/07/06 06:50:17;;;;;;;1.35;0.47;;;;;;;21.85;65.87;95839.69;5075805;28;20059;-74
2021/07/06 06:52:43;;;;;;;0.98;0.75;;;;;;;21.87;65.66;95832.16;5077136;28;20397;-74
2021/07/06 06:55:10;;;;;;;0.50;0.50;;;;;;;21.93;65.09;95844.28;5076989;28;20037;-74
2021/07/06 06:57:36;;;;;;;0.52;0.47;;;;;;;22.11;65.15;95850.50;5076112;28;20047;-74
2021/07/06 07:00:08;;;;;;;0.63;0.47;;;;;;;21.97;63.70;95845.25;5077038;28;20032;-74
2021/07/06 07:02:34;;;;;;;2.08;0.55;;;;;;;21.74;64.80;95863.16;5076913;28;20024;-74
2021/07/06 07:05:00;;;;;;;0.63;0.63;;;;;;;21.63;64.89;95864.50;5076858;28;20037;-74
2021/07/06 07:07:27;;;;;;;0.90;0.55;;;;;;;21.53;65.08;95867.41;5076577;28;20043;-74
2021/07/06 07:09:53;;;;;;;0.95;0.60;;;;;;;21.53;65.31;95860.19;5076759;28;20040;-74
2021/07/06 07:12:19;;;;;;;0.93;0.50;;;;;;;21.74;65.42;95854.38;5076949;28;20036;-74
2021/07/06 07:14:46;;;;;;;0.73;0.50;;;;;;;21.72;65.10;95845.88;5076410;28;20036;-74
2021/07/06 07:17:12;;;;;;;1.52;0.60;;;;;;;21.53;65.06;95843.41;5076207;28;20443;-74
2021/07/06 07:19:39;;;;;;;0.75;0.60;;;;;;;21.51;65.34;95835.69;5076517;28;20051;-74
2021/07/06 07:22:06;;;;;;;0.60;0.60;;;;;;;21.63;65.45;95843.94;5075034;28;20052;-74
2021/07/06 07:24:33;;;;;;;0.75;0.75;;;;;;;21.76;65.70;95844.19;5076318;28;20036;-74
2021/07/06 07:26:59;;;;;;;0.98;0.60;;;;;;;22.18;65.59;95850.09;5076271;28;20396;-74
2021/07/06 07:29:26;;;;;;;0.82;0.65;;;;;;;22.50;64.61;95833.72;5076352;28;20033;-74
2021/07/06 07:31:53;;;;;;;0.68;0.68;;;;;;;22.60;64.08;95838.03;5075972;28;20036;-75
2021/07/06 07:34:19;;;;;;;0.70;0.70;;;;;;;22.69;63.27;95843.38;5062593;28;20052;-74
2021/07/06 07:36:47;;;;;;;0.60;0.60;;;;;;;22.89;62.81;95836.69;5076411;28;20036;-74
2021/07/06 07:39:13;;;;;;;0.40;0.40;;;;;;;22.87;62.22;95838.88;5075922;28;20047;-74
2021/07/06 07:41:39;;;;;;;0.43;0.43;;;;;;;22.75;62.16;95834.13;5076030;28;20032;-74
2021/07/06 07:44:06;;;;;;;0.50;0.50;;;;;;;22.64;62.07;95824.84;5076061;28;20396;-74
2021/07/06 07:46:32;;;;;;;0.50;0.50;;;;;;;22.43;62.16;95814.69;5075644;28;20047;-74
2021/07/06 07:48:58;;;;;;;0.73;0.50;;;;;;;22.32;62.64;95807.25;5075727;28;20063;-74
2021/07/06 07:51:25;;;;;;;0.30;0.30;;;;;;;22.10;62.76;95800.88;5076146;28;20036;-75
2021/07/06 07:53:52;;;;;;;0.63;0.40;;;;;;;21.94;63.19;95795.13;5075299;28;20041;-74
2021/07/06 07:56:18;;;;;;;0.82;0.52;;;;;;;21.87;63.77;95797.47;5075789;28;20376;-73
2021/07/06 07:58:44;;;;;;;1.23;0.60;;;;;;;21.89;64.10;95801.38;5075508;28;20044;-73
2021/07/06 08:01:11;;;;;;;0.75;0.50;;;;;;;22.18;64.41;95810.81;5072455;28;20047;-74
2021/07/06 08:03:37;;;;;;;0.65;0.30;;;;;;;22.50;63.88;95822.25;5075068;28;20048;-74
2021/07/06 08:06:03;;;;;;;1.38;0.30;;;;;;;22.74;62.91;95818.41;5075257;28;20056;-74
2021/07/06 08:08:29;;;;;;;0.40;0.40;;;;;;;22.90;62.19;95814.97;5075655;28;20028;-74
2021/07/06 08:10:58;;;;;;;0.40;0.40;;;;;;;23.16;62.05;95808.09;5075754;28;20032;-74
2021/07/06 08:13:25;;;;;;;0.35;0.28;;;;;;;23.54;61.02;95815.50;5075521;28;20036;-74
2021/07/06 08:15:52;;;;;;;0.20;0.20;;;;;;;23.87;60.30;95829.94;5074913;28;20141;-74
2021/07/06 08:18:19;;;;;;;0.35;0.30;;;;;;;24.16;59.64;95839.19;5075171;28;20040;-74
2021/07/06 08:20:46;;;;;;;0.90;0.30;;;;;;;24.52;59.07;95852.16;5074173;28;20430;-74
2021/07/06 08:23:13;;;;;;;0.35;0.20;;;;;;;24.64;57.86;95846.13;5075186;28;20044;-74
2021/07/06 08:25:39;;;;;;;0.30;0.30;;;;;;;24.59;57.15;95840.16;5062940;28;20051;-74
2021/07/06 08:28:05;;;;;;;0.20;0.20;;;;;;;24.47;57.17;95856.91;5074917;28;20035;-74
2021/07/06 08:30:32;;;;;;;0.30;0.30;;;;;;;24.40;56.93;95870.00;5075212;28;20366;-74
2021/07/06 08:32:58;;;;;;;0.40;0.20;;;;;;;24.44;56.90;95870.94;5075072;28;20028;-74
2021/07/06 08:35:25;;;;;;;0.35;0.35;;;;;;;24.57;56.53;95871.84;5075514;28;20491;-74
2021/07/06 08:37:51;;;;;;;0.30;0.30;;;;;;;24.66;56.30;95886.03;5074882;28;20056;-74
2021/07/06 08:40:18;;;;;;;0.50;0.40;;;;;;;24.62;56.05;95885.88;5075027;28;20036;-74
2021/07/06 08:42:44;;;;;;;0.47;0.45;;;;;;;24.44;55.88;95895.03;5074283;28;20048;-75
2021/07/06 08:45:11;;;;;;;1.30;0.77;;;;;;;24.23;56.19;95919.06;5074714;28;20044;-74
2021/07/06 08:47:42;;;;;;;0.38;0.38;;;;;;;24.09;56.61;95916.59;5074009;28;20049;-74
2021/07/06 08:50:09;;;;;;;0.40;0.40;;;;;;;24.20;57.00;95925.84;5074849;28;20040;-74
2021/07/06 08:52:37;;;;;;;0.40;0.40;;;;;;;24.26;56.55;95916.53;5074771;28;20028;-74
2021/07/06 08:55:05;;;;;;;1.25;0.30;;;;;;;24.25;56.86;95922.22;5074824;28;20461;-74
2021/07/06 08:57:31;;;;;;;0.20;0.20;;;;;;;24.19;56.56;95928.84;5074286;28;20035;-74
2021/07/06 08:59:57;;;;;;;1.20;0.40;;;;;;;24.23;56.83;95935.13;5074458;28;20029;-74
2021/07/06 09:02:23;;;;;;;0.30;0.30;;;;;;;24.30;57.18;95940.81;5074759;28;20036;-73
2021/07/06 09:04:54;;;;;;;0.47;0.40;;;;;;;24.35;57.14;95946.00;5074487;28;20037;-74
2021/07/06 09:07:21;;;;;;;1.38;0.30;;;;;;;24.33;57.32;95958.91;5074288;28;20036;-74
2021/07/06 09:09:51;;;;;;;0.30;0.30;;;;;;;24.24;57.40;95960.84;5073976;28;20059;-74
2021/07/06 09:12:20;;;;;;;0.70;0.30;;;;;;;24.11;57.74;95967.94;5073762;28;20045;-74
2021/07/06 09:14:49;;;;;;;0.40;0.40;;;;;;;24.01;57.96;95979.75;5073696;28;20052;-73
2021/07/06 09:17:17;;;;;;;1.05;0.40;;;;;;;23.90;57.96;95973.16;5074200;28;20055;-73
2021/07/06 09:19:48;;;;;;;1.30;0.50;;;;;;;23.83;58.45;95980.84;5073853;28;20384;-73
2021/07/06 09:22:26;;;;;;;0.60;0.60;;;;;;;23.76;58.79;95991.22;5073668;28;20043;-74
2021/07/06 09:25:03;;;;;;;0.35;0.35;;;;;;;23.74;59.50;96014.84;5074416;28;20032;-73
2021/07/06 09:27:33;;;;;;;0.95;0.50;;;;;;;23.69;58.92;96003.19;5074457;28;20024;-74
2021/07/06 09:30:19;;;;;;;2.00;0.82;;;;;;;23.61;58.44;95998.59;5073921;28;20031;-74
2021/07/06 09:32:51;;;;;;;0.57;0.57;;;;;;;23.62;58.91;96004.75;5073879;28;20039;-74
2021/07/06 09:35:27;;;;;;;0.40;0.40;;;;;;;23.64;58.77;95995.28;5074017;28;20035;-74
2021/07/06 09:37:55;;;;;;;0.63;0.30;;;;;;;23.77;58.84;96011.56;5074352;28;20032;-74
2021/07/06 09:40:24;;;;;;;0.30;0.30;;;;;;;23.86;58.05;95996.31;5073862;28;20055;-74
2021/07/06 09:43:16;;;;;;;0.73;0.43;;;;;;;23.99;57.54;95997.25;5073907;28;20381;-74
2021/07/06 09:46:00;;;;;;;0.60;0.35;;;;;;;24.03;57.76;95993.63;5065442;28;20051;-73
2021/07/06 09:48:28;;;;;;;0.40;0.40;;;;;;;24.21;57.59;95980.22;5073731;28;20032;-74
2021/07/06 09:51:18;;;;;;;0.30;0.30;;;;;;;24.29;56.88;95968.69;5073679;28;20060;-74
2021/07/06 09:53:53;;;;;;;0.43;0.40;;;;;;;24.33;57.41;95979.59;5062307;28;20041;-74
2021/07/06 09:56:23;;;;;;;0.40;0.40;;;;;;;24.19;57.22;95996.63;5073669;28;20073;-73
2021/07/06 09:58:55;;;;;;;0.50;0.30;;;;;;;24.02;57.34;95992.06;5073476;28;20457;-74
2021/07/06 10:01:22;;;;;;;0.65;0.28;;;;;;;23.86;57.87;95999.78;5073066;28;20036;-73
2021/07/06 10:03:50;;;;;;;1.05;0.30;;;;;;;23.73;58.40;96006.03;5073240;28;20032;-73
2021/07/06 10:06:26;;;;;;;0.30;0.22;;;;;;;23.68;59.08;95993.56;5073335;28;20040;-73
2021/07/06 10:08:54;;;;;;;1.98;0.47;;;;;;;23.64;59.04;95983.81;5062601;28;20032;-74
2021/07/06 10:11:22;;;;;;;0.45;0.25;;;;;;;23.50;58.97;95986.63;5073219;28;20024;-74
2021/07/06 10:13:49;;;;;;;0.55;0.20;;;;;;;23.36;59.64;95999.34;5073413;28;20040;-74
2021/07/06 10:16:16;;;;;;;0.20;0.20;;;;;;;23.20;59.72;96018.47;5071335;28;20051;-74
2021/07/06 10:18:44;;;;;;;0.17;0.17;;;;;;;23.21;60.28;96016.63;5071557;28;20044;-73
2021/07/06 10:21:10;;;;;;;0.22;0.17;;;;;;;23.20;60.42;95996.28;5073368;28;20036;-73
2021/07/06 10:23:41;;;;;;;0.20;0.10;;;;;;;23.18;60.48;96001.97;5071617;28;20051;-74
2021/07/06 10:26:10;;;;;;;0.10;0.10;;;;;;;23.00;60.33;95993.06;5073588;28;20377;-74
2021/07/06 10:28:37;;;;;;;0.20;0.20;;;;;;;22.93;60.69;95984.69;5072585;28;20060;-74
2021/07/06 10:31:15;;;;;;;0.10;0.10;;;;;;;22.86;61.89;95987.00;5072892;28;20032;-75
2021/07/06 10:33:43;;;;;;;0.32;0.10;;;;;;;22.77;61.35;95983.53;5073414;28;20036;-74
2021/07/06 10:36:12;;;;;;;0.10;0.10;;;;;;;22.67;61.62;95985.34;5073022;28;20036;-74
2021/07/06 10:38:42;;;;;;;0.10;0.10;;;;;;;22.52;61.52;95998.31;5073037;28;20380;-74
2021/07/06 10:41:20;;;;;;;0.10;0.10;;;;;;;22.34;61.84;95995.53;5073202;28;20473;-74
2021/07/06 10:43:46;;;;;;;0.30;0.10;;;;;;;22.26;62.21;95988.25;5062962;28;20519;-74
2021/07/06 10:46:21;;;;;;;0.10;0.10;;;;;;;22.26;63.36;95994.38;5073055;28;20366;-73
2021/07/06 10:49:10;;;;;;;0.10;0.10;;;;;;;22.28;63.23;95994.88;5072432;28;20064;-74
2021/07/06 10:51:39;;;;;;;0.20;0.10;;;;;;;22.28;62.78;95994.88;5072844;28;20032;-73
2021/07/06 10:54:25;;;;;;;1.08;0.08;;;;;;;22.37;62.93;96018.19;5072617;28;20036;-74
2021/07/06 10:56:54;;;;;;;0.10;0.10;;;;;;;22.46;62.87;96038.50;5073666;28;20059;-74
2021/07/06 10:59:35;;;;;;;0.10;0.10;;;;;;;22.58;64.03;96046.00;5073210;28;20029;-74
2021/07/06 11:02:08;;;;;;;0.10;0.10;;;;;;;22.68;63.16;96035.03;5063559;28;20037;-73
2021/07/06 11:04:46;;;;;;;0.10;0.10;;;;;;;22.73;62.82;96038.69;5072742;28;20028;-74
2021/07/06 11:07:30;;;;;;;0.10;0.10;;;;;;;22.78;62.25;96017.94;5072039;28;20033;-74
2021/07/06 11:09:56;;;;;;;0.25;0.10;;;;;;;22.81;62.38;96014.69;5072710;28;20028;-74
2021/07/06 11:12:24;;;;;;;0.20;0.20;;;;;;;22.84;62.17;96023.97;5072616;28;20032;-74
2021/07/06 11:15:02;;;;;;;0.10;0.10;;;;;;;22.88;61.99;96011.56;5072744;28;20032;-74
2021/07/06 11:17:37;;;;;;;0.00;0.00;;;;;;;22.87;61.52;96000.09;5058462;28;20037;-74
2021/07/06 11:20:09;;;;;;;0.10;0.10;;;;;;;22.88;61.55;96022.25;5073119;28;20039;-74
2021/07/06 11:22:42;;;;;;;0.00;0.00;;;;;;;22.89;61.54;96034.53;5072618;28;20040;-74
2021/07/06 11:25:37;;;;;;;0.10;0.10;;;;;;;22.87;62.09;96026.81;5072582;28;20408;-73
2021/07/06 11:28:14;;;;;;;0.00;0.00;;;;;;;22.85;61.86;96033.56;5072188;28;20044;-74
2021/07/06 11:30:47;;;;;;;0.10;0.10;;;;;;;22.79;61.70;96024.09;5073015;28;20040;-74
2021/07/06 11:33:19;;;;;;;0.10;0.10;;;;;;;22.71;61.75;96025.63;5072227;28;20044;-74
2021/07/06 11:35:46;;;;;;;0.40;0.10;;;;;;;22.65;62.14;96040.22;5073089;28;20069;-74
2021/07/06 11:38:18;;;;;;;0.10;0.10;;;;;;;22.61;62.88;96076.66;5075598;28;20049;-74
2021/07/06 11:40:47;;;;;;;0.00;0.00;;;;;;;22.55;62.32;96093.91;5076290;28;20035;-74